createdAt,value
2018-06-19T00:02:40.534Z,19.97
2018-06-19T00:05:09.654Z,19.87
2018-06-19T00:07:38.717Z,19.85
2018-06-19T00:10:07.813Z,19.88
2018-06-19T00:12:36.989Z,19.79
2018-06-19T00:15:06.214Z,19.81
2018-06-19T00:17:36.336Z,19.70
2018-06-19T00:20:05.740Z,19.73
2018-06-19T00:22:34.930Z,19.72
2018-06-19T00:25:04.074Z,19.65
2018-06-19T00:27:33.294Z,19.66
2018-06-19T00:30:02.423Z,19.64
2018-06-19T00:32:31.494Z,19.50
2018-06-19T00:35:00.613Z,19.40
2018-06-19T00:37:29.715Z,19.21
2018-06-19T00:39:58.818Z,19.16
2018-06-19T00:42:27.973Z,19.10
2018-06-19T00:44:57.127Z,19.02
2018-06-19T00:47:26.288Z,18.97
2018-06-19T00:49:55.360Z,18.85
2018-06-19T00:52:24.560Z,18.82
2018-06-19T00:54:53.706Z,18.84
2018-06-19T00:57:22.843Z,18.85
2018-06-19T00:59:52.589Z,18.83
2018-06-19T01:02:21.678Z,18.69
2018-06-19T01:04:50.741Z,18.71
2018-06-19T01:07:19.874Z,18.74
2018-06-19T01:09:49.157Z,18.72
2018-06-19T01:12:18.267Z,18.73
2018-06-19T01:14:47.561Z,18.70
2018-06-19T01:17:16.793Z,18.59
2018-06-19T01:19:45.983Z,18.53
2018-06-19T01:22:15.107Z,18.46
2018-06-19T01:24:44.215Z,18.46
2018-06-19T01:27:13.349Z,18.53
2018-06-19T01:29:42.509Z,18.56
2018-06-19T01:32:11.606Z,18.55
2018-06-19T01:34:40.733Z,18.56
2018-06-19T01:37:09.850Z,18.64
2018-06-19T01:39:39.031Z,18.66
2018-06-19T01:42:08.092Z,18.78
2018-06-19T01:44:37.229Z,18.84
2018-06-19T01:47:06.422Z,18.91
2018-06-19T01:49:35.534Z,18.95
2018-06-19T01:52:04.630Z,19.02
2018-06-19T01:54:34.065Z,18.96
2018-06-19T01:57:03.147Z,18.90
2018-06-19T01:59:32.306Z,18.90
2018-06-19T02:02:01.482Z,18.86
2018-06-19T02:04:30.636Z,18.80
2018-06-19T02:06:59.684Z,18.75
2018-06-19T02:09:28.765Z,18.67
2018-06-19T02:11:57.850Z,18.62
2018-06-19T02:14:26.945Z,18.58
2018-06-19T02:16:56.039Z,18.53
2018-06-19T02:19:25.178Z,18.60
2018-06-19T02:21:54.252Z,18.60
2018-06-19T02:24:23.447Z,18.53
2018-06-19T02:26:52.976Z,18.46
2018-06-19T02:29:22.093Z,18.38
2018-06-19T02:31:51.650Z,18.26
2018-06-19T02:34:20.778Z,18.09
2018-06-19T02:36:49.956Z,18.02
2018-06-19T02:39:19.062Z,18.03
2018-06-19T02:41:48.185Z,18.11
2018-06-19T02:44:17.262Z,18.37
2018-06-19T02:46:46.410Z,18.57
2018-06-19T02:49:15.509Z,18.58
2018-06-19T02:51:44.597Z,18.59
2018-06-19T02:54:14.128Z,18.65
2018-06-19T02:56:43.227Z,18.57
2018-06-19T02:59:12.336Z,18.52
2018-06-19T03:01:41.494Z,18.53
2018-06-19T03:04:10.542Z,18.52
2018-06-19T03:06:40.637Z,18.45
2018-06-19T03:09:13.347Z,18.31
2018-06-19T03:11:42.406Z,18.09
2018-06-19T03:14:11.473Z,17.93
2018-06-19T03:16:40.622Z,18.09
2018-06-19T03:19:09.737Z,18.35
2018-06-19T03:21:39.031Z,18.43
2018-06-19T03:24:08.789Z,18.45
2018-06-19T03:26:37.934Z,18.43
2018-06-19T03:29:07.076Z,18.32
2018-06-19T03:31:36.171Z,18.37
2018-06-19T03:34:05.268Z,18.15
2018-06-19T03:36:34.317Z,17.90
2018-06-19T03:39:03.666Z,17.74
2018-06-19T03:41:33.157Z,17.67
2018-06-19T03:44:02.353Z,17.62
2018-06-19T03:46:31.466Z,17.61
2018-06-19T03:49:00.867Z,17.64
2018-06-19T03:51:29.979Z,17.62
2018-06-19T03:53:59.135Z,17.77
2018-06-19T03:56:28.254Z,17.86
2018-06-19T03:58:57.461Z,17.96
2018-06-19T04:01:26.551Z,17.93
2018-06-19T04:03:56.081Z,17.82
2018-06-19T04:06:29.402Z,17.75
2018-06-19T04:08:58.970Z,17.68
2018-06-19T04:11:28.956Z,17.84
2018-06-19T04:13:58.042Z,17.87
2018-06-19T04:16:27.122Z,18.03
2018-06-19T04:18:56.178Z,18.19
2018-06-19T04:21:25.270Z,18.31
2018-06-19T04:23:54.369Z,18.36
2018-06-19T04:26:23.466Z,18.34
2018-06-19T04:28:52.566Z,18.44
2018-06-19T04:31:21.655Z,18.46
2018-06-19T04:33:50.960Z,18.34
2018-06-19T04:36:20.146Z,18.19
2018-06-19T04:38:49.256Z,18.02
2018-06-19T04:41:18.439Z,18.12
2018-06-19T04:43:47.542Z,18.31
2018-06-19T04:46:17.025Z,18.41
2018-06-19T04:48:46.125Z,18.47
2018-06-19T04:51:15.373Z,18.50
2018-06-19T04:53:44.546Z,18.55
2018-06-19T04:56:13.636Z,18.59
2018-06-19T04:58:42.716Z,18.52
2018-06-19T05:01:11.920Z,18.54
2018-06-19T05:03:41.162Z,18.60
2018-06-19T05:06:11.251Z,18.67
2018-06-19T05:08:40.622Z,18.65
2018-06-19T05:11:09.742Z,18.69
2018-06-19T05:13:38.914Z,18.65
2018-06-19T05:16:08.140Z,18.76
2018-06-19T05:18:37.199Z,18.79
2018-06-19T05:21:06.390Z,18.84
2018-06-19T05:23:36.393Z,18.85
2018-06-19T05:26:05.934Z,18.83
2018-06-19T05:28:35.047Z,18.87
2018-06-19T05:31:22.540Z,18.88
2018-06-19T05:33:51.582Z,18.91
2018-06-19T05:36:20.770Z,18.94
2018-06-19T05:38:49.946Z,19.03
2018-06-19T05:41:19.161Z,19.10
2018-06-19T05:43:48.252Z,19.13
2018-06-19T05:46:17.639Z,19.17
2018-06-19T05:48:46.853Z,19.27
2018-06-19T05:51:16.564Z,19.34
2018-06-19T05:53:45.761Z,19.47
2018-06-19T05:56:15.305Z,19.47
2018-06-19T05:58:44.532Z,19.49
2018-06-19T06:01:13.648Z,19.54
2018-06-19T06:03:43.229Z,19.62
2018-06-19T06:06:12.379Z,19.72
2018-06-19T06:08:41.543Z,19.66
2018-06-19T06:11:10.884Z,19.75
2018-06-19T06:13:40.340Z,19.74
2018-06-19T06:16:09.534Z,19.63
2018-06-19T06:18:38.928Z,19.79
2018-06-19T06:21:08.147Z,19.85
2018-06-19T06:23:37.876Z,20.00
2018-06-19T06:26:06.976Z,20.09
2018-06-19T06:28:36.151Z,20.10
2018-06-19T06:31:06.288Z,20.19
2018-06-19T06:33:35.399Z,20.36
2018-06-19T06:36:05.711Z,20.43
2018-06-19T06:38:34.979Z,20.51
2018-06-19T06:41:04.126Z,20.43
2018-06-19T06:43:33.313Z,20.46
2018-06-19T06:46:02.481Z,20.47
2018-06-19T06:48:31.697Z,20.48
2018-06-19T06:51:00.899Z,20.49
2018-06-19T06:53:30.130Z,19.96
2018-06-19T06:55:59.427Z,20.65
2018-06-19T06:58:28.669Z,20.68
2018-06-19T07:00:58.111Z,20.53
2018-06-19T07:03:27.242Z,20.76
2018-06-19T07:05:57.177Z,20.74
2018-06-19T07:08:26.420Z,20.80
2018-06-19T07:10:56.236Z,20.95
2018-06-19T07:13:25.425Z,21.09
2018-06-19T07:15:54.598Z,21.11
2018-06-19T07:18:23.686Z,21.13
2018-06-19T07:20:52.837Z,21.32
2018-06-19T07:23:21.930Z,21.43
2018-06-19T07:25:51.327Z,21.61
2018-06-19T07:28:20.379Z,21.53
2018-06-19T07:30:49.648Z,21.45
2018-06-19T07:33:18.670Z,21.37
2018-06-19T07:35:47.957Z,21.39
2018-06-19T07:38:17.089Z,21.44
2018-06-19T07:40:46.361Z,21.69
2018-06-19T07:43:15.550Z,21.84
2018-06-19T07:45:45.510Z,21.70
2018-06-19T07:48:14.641Z,21.81
2018-06-19T07:50:43.813Z,21.81
2018-06-19T07:53:13.110Z,21.87
2018-06-19T07:55:42.661Z,21.85
2018-06-19T07:58:14.848Z,21.96
2018-06-19T08:00:44.078Z,21.97
2018-06-19T08:03:13.276Z,22.11
2018-06-19T08:05:42.433Z,22.23
2018-06-19T08:08:11.574Z,22.35
2018-06-19T08:10:40.696Z,22.33
2018-06-19T08:13:09.938Z,22.51
2018-06-19T08:15:39.300Z,22.33
2018-06-19T08:18:08.496Z,22.39
2018-06-19T08:20:37.669Z,22.35
2018-06-19T08:23:11.414Z,22.36
2018-06-19T08:25:40.515Z,22.48
2018-06-19T08:28:09.715Z,22.48
2018-06-19T08:30:38.882Z,22.43
2018-06-19T08:33:08.058Z,22.48
2018-06-19T08:35:37.239Z,22.53
2018-06-19T08:38:06.709Z,22.56
2018-06-19T08:40:35.848Z,22.50
2018-06-19T08:43:05.928Z,22.73
2018-06-19T08:45:35.123Z,22.95
2018-06-19T08:48:04.429Z,23.15
2018-06-19T08:50:33.881Z,23.28
2018-06-19T08:53:04.308Z,23.09
2018-06-19T08:55:34.350Z,22.98
2018-06-19T08:58:04.328Z,22.93
2018-06-19T09:00:33.458Z,22.75
2018-06-19T09:03:02.575Z,22.67
2018-06-19T09:05:31.875Z,22.87
2018-06-19T09:08:01.148Z,22.76
2018-06-19T09:10:30.311Z,22.89
2018-06-19T09:12:59.474Z,22.94
2018-06-19T09:15:28.798Z,22.80
2018-06-19T09:17:58.135Z,23.02
2018-06-19T09:20:27.494Z,23.10
2018-06-19T09:22:57.228Z,23.39
2018-06-19T09:25:26.793Z,23.46
2018-06-19T09:27:56.062Z,23.25
2018-06-19T09:30:25.295Z,23.30
2018-06-19T09:32:54.778Z,23.34
2018-06-19T09:35:24.728Z,23.43
2018-06-19T09:37:54.029Z,23.45
2018-06-19T09:40:25.947Z,23.52
2018-06-19T09:42:55.147Z,23.45
2018-06-19T09:45:24.329Z,23.52
2018-06-19T09:47:53.449Z,23.81
2018-06-19T09:50:22.678Z,24.02
2018-06-19T09:52:52.471Z,24.15
2018-06-19T09:55:21.642Z,24.13
2018-06-19T09:57:50.737Z,24.20
2018-06-19T10:00:25.426Z,24.27
2018-06-19T10:02:55.534Z,24.07
2018-06-19T10:05:24.813Z,23.90
2018-06-19T10:07:53.981Z,24.28
2018-06-19T10:10:23.589Z,24.30
2018-06-19T10:12:52.985Z,24.32
2018-06-19T10:15:22.122Z,24.48
2018-06-19T10:17:52.239Z,24.63
2018-06-19T10:20:21.909Z,24.72
2018-06-19T10:22:51.201Z,24.80
2018-06-19T10:25:20.313Z,24.73
2018-06-19T10:27:49.628Z,24.69
2018-06-19T10:30:19.169Z,24.30
2018-06-19T10:32:48.423Z,24.90
2018-06-19T10:35:17.610Z,24.87
2018-06-19T10:37:46.775Z,24.89
2018-06-19T10:40:15.948Z,24.94
2018-06-19T10:42:45.206Z,24.93
2018-06-19T10:45:14.415Z,25.05
2018-06-19T10:47:43.603Z,25.09
2018-06-19T10:50:13.186Z,25.02
2018-06-19T10:52:42.401Z,24.98
2018-06-19T10:55:11.859Z,25.05
2018-06-19T10:57:40.999Z,24.60
2018-06-19T11:00:10.522Z,24.61
2018-06-19T11:02:39.657Z,24.59
2018-06-19T11:05:09.035Z,24.81
2018-06-19T11:07:38.204Z,24.76
2018-06-19T11:10:07.411Z,24.51
2018-06-19T11:12:36.509Z,24.81
2018-06-19T11:15:06.610Z,25.07
2018-06-19T11:17:35.778Z,24.81
2018-06-19T11:20:05.167Z,24.93
2018-06-19T11:22:34.299Z,24.92
2018-06-19T11:25:03.536Z,25.15
2018-06-19T11:27:32.627Z,25.30
2018-06-19T11:30:01.763Z,25.52
2018-06-19T11:32:30.941Z,25.77
2018-06-19T11:35:00.092Z,25.86
2018-06-19T11:37:29.202Z,26.06
2018-06-19T11:39:58.551Z,26.17
2018-06-19T11:42:27.766Z,26.38
2018-06-19T11:44:56.939Z,26.37
2018-06-19T11:47:26.181Z,26.31
2018-06-19T11:49:55.306Z,26.39
2018-06-19T11:52:24.469Z,26.24
2018-06-19T11:54:53.594Z,26.03
2018-06-19T11:57:22.896Z,26.01
2018-06-19T11:59:51.965Z,25.97
2018-06-19T12:02:21.106Z,25.93
2018-06-19T12:04:50.397Z,26.03
2018-06-19T12:07:19.665Z,25.90
2018-06-19T12:09:49.114Z,26.09
2018-06-19T12:12:18.323Z,26.00
2018-06-19T12:14:48.208Z,25.99
2018-06-19T12:17:17.424Z,26.11
2018-06-19T12:19:46.647Z,26.36
2018-06-19T12:22:15.878Z,26.27
2018-06-19T12:24:45.211Z,26.43
2018-06-19T12:27:14.404Z,26.58
2018-06-19T12:29:43.544Z,26.48
2018-06-19T12:32:12.722Z,26.42
2018-06-19T12:34:41.934Z,26.44
2018-06-19T12:37:11.275Z,26.52
2018-06-19T12:39:41.025Z,26.70
2018-06-19T12:42:10.383Z,26.68
2018-06-19T12:44:39.551Z,26.58
2018-06-19T12:47:08.700Z,26.35
2018-06-19T12:49:49.032Z,26.20
2018-06-19T12:52:29.406Z,25.87
2018-06-19T12:55:09.296Z,25.62
2018-06-19T12:57:38.468Z,25.68
2018-06-19T13:00:07.711Z,25.94
2018-06-19T13:02:36.910Z,26.11
2018-06-19T13:05:17.588Z,26.22
2018-06-19T13:07:47.012Z,26.40
2018-06-19T13:10:16.178Z,26.58
2018-06-19T13:13:27.051Z,26.49
2018-06-19T13:15:56.632Z,26.88
2018-06-19T13:18:38.479Z,27.24
2018-06-19T13:21:07.625Z,27.51
2018-06-19T13:23:36.734Z,27.40
2018-06-19T13:26:05.937Z,27.32
2018-06-19T13:29:54.694Z,27.05
2018-06-19T13:32:24.522Z,26.78
2018-06-19T13:34:53.806Z,26.66
2018-06-19T13:37:23.523Z,26.78
2018-06-19T13:41:07.670Z,26.44
2018-06-19T13:43:47.933Z,26.10
2018-06-19T13:46:17.123Z,26.10
2018-06-19T13:48:46.605Z,26.09
2018-06-19T13:51:16.035Z,26.21
2018-06-19T13:53:46.382Z,26.11
2018-06-19T13:57:26.622Z,26.15
2018-06-19T13:59:56.133Z,26.26
2018-06-19T14:02:25.512Z,26.19
2018-06-19T14:04:55.259Z,26.33
2018-06-19T14:07:25.538Z,26.39
2018-06-19T14:10:06.170Z,26.25
2018-06-19T14:12:51.925Z,26.04
2018-06-19T14:15:22.252Z,26.24
2018-06-19T14:17:52.206Z,26.17
2018-06-19T14:20:23.257Z,26.33
2018-06-19T14:22:53.010Z,26.44
2018-06-19T14:25:23.768Z,24.65
2018-06-19T14:27:53.198Z,26.71
2018-06-19T14:30:22.447Z,26.86
2018-06-19T14:32:51.844Z,26.94
2018-06-19T14:35:21.982Z,26.84
2018-06-19T14:37:51.380Z,26.47
2018-06-19T14:40:21.455Z,26.46
2018-06-19T14:42:50.590Z,26.53
2018-06-19T14:45:19.913Z,26.51
2018-06-19T14:47:49.174Z,26.36
2018-06-19T14:50:18.479Z,26.33
2018-06-19T14:52:47.714Z,26.27
2018-06-19T14:55:16.895Z,26.29
2018-06-19T14:57:47.009Z,26.34
2018-06-19T15:00:16.289Z,26.31
2018-06-19T15:02:45.649Z,26.34
2018-06-19T15:05:15.302Z,26.65
2018-06-19T15:07:57.610Z,26.77
2018-06-19T15:10:27.693Z,27.11
2018-06-19T15:12:57.046Z,27.06
2018-06-19T15:15:26.337Z,26.85
2018-06-19T15:17:56.377Z,26.52
2018-06-19T15:20:25.956Z,26.54
2018-06-19T15:22:56.310Z,26.60
2018-06-19T15:25:25.552Z,26.49
2018-06-19T15:27:54.796Z,26.53
2018-06-19T15:30:23.980Z,26.85
2018-06-19T15:32:53.239Z,26.90
2018-06-19T15:35:22.786Z,26.73
2018-06-19T15:37:51.967Z,26.70
2018-06-19T15:40:23.320Z,26.62
2018-06-19T15:42:52.577Z,26.55
2018-06-19T15:45:22.286Z,26.66
2018-06-19T15:47:52.811Z,26.87
2018-06-19T15:50:22.025Z,26.57
2018-06-19T15:52:51.159Z,26.43
2018-06-19T15:55:21.005Z,26.44
2018-06-19T15:57:51.654Z,26.56
2018-06-19T16:00:20.910Z,26.57
2018-06-19T16:02:50.098Z,26.47
2018-06-19T16:05:21.550Z,26.51
2018-06-19T16:07:56.078Z,26.58
2018-06-19T16:10:25.374Z,26.55
2018-06-19T16:12:54.711Z,26.36
2018-06-19T16:15:23.938Z,26.14
2018-06-19T16:17:53.191Z,26.33
2018-06-19T16:20:22.641Z,26.55
2018-06-19T16:22:51.789Z,26.47
2018-06-19T16:25:20.947Z,26.60
2018-06-19T16:27:50.219Z,26.71
2018-06-19T16:30:19.345Z,26.61
2018-06-19T16:32:48.573Z,26.54
2018-06-19T16:35:18.689Z,26.63
2018-06-19T16:37:48.616Z,26.72
2018-06-19T16:40:18.870Z,26.80
2018-06-19T16:42:48.033Z,26.61
2018-06-19T16:45:17.335Z,26.64
2018-06-19T16:47:47.257Z,26.76
2018-06-19T16:50:16.407Z,26.49
2018-06-19T16:52:45.635Z,26.53
2018-06-19T16:55:15.673Z,26.47
2018-06-19T16:57:44.963Z,26.49
2018-06-19T17:00:14.145Z,26.51
2018-06-19T17:02:43.325Z,26.47
2018-06-19T17:05:12.449Z,26.44
2018-06-19T17:07:42.633Z,26.32
2018-06-19T17:10:12.885Z,26.19
2018-06-19T17:12:42.401Z,26.33
2018-06-19T17:15:11.485Z,26.36
2018-06-19T17:17:40.682Z,26.41
2018-06-19T17:20:09.883Z,26.37
2018-06-19T17:22:39.446Z,26.29
2018-06-19T17:25:08.516Z,26.40
2018-06-19T17:27:37.675Z,26.47
2018-06-19T17:30:06.944Z,26.40
2018-06-19T17:32:36.038Z,26.48
2018-06-19T17:35:05.573Z,26.42
2018-06-19T17:37:34.774Z,26.29
2018-06-19T17:40:04.100Z,25.99
2018-06-19T17:42:33.261Z,25.94
2018-06-19T17:45:02.905Z,26.08
2018-06-19T17:47:32.013Z,26.08
2018-06-19T17:50:01.328Z,26.01
2018-06-19T17:52:30.793Z,26.05
2018-06-19T17:54:59.888Z,26.02
2018-06-19T17:57:29.177Z,26.01
2018-06-19T17:59:58.300Z,26.16
2018-06-19T18:02:27.534Z,26.10
2018-06-19T18:04:57.092Z,25.97
2018-06-19T18:07:26.186Z,25.84
2018-06-19T18:09:55.449Z,25.90
2018-06-19T18:12:25.569Z,25.74
2018-06-19T18:14:54.686Z,25.74
2018-06-19T18:17:23.839Z,25.88
2018-06-19T18:19:56.047Z,25.79
2018-06-19T18:22:25.217Z,25.62
2018-06-19T18:24:54.328Z,25.59
2018-06-19T18:27:23.470Z,25.54
2018-06-19T18:29:52.678Z,25.45
2018-06-19T18:32:22.285Z,25.47
2018-06-19T18:34:51.479Z,25.56
2018-06-19T18:37:20.611Z,25.58
2018-06-19T18:39:49.805Z,25.31
2018-06-19T18:42:18.945Z,24.94
2018-06-19T18:44:48.035Z,25.32
2018-06-19T18:47:17.433Z,25.33
2018-06-19T18:49:46.530Z,25.27
2018-06-19T18:52:15.637Z,25.23
2018-06-19T18:54:45.215Z,25.37
2018-06-19T18:57:14.313Z,25.47
2018-06-19T18:59:43.383Z,25.53
2018-06-19T19:02:12.824Z,25.55
2018-06-19T19:04:41.879Z,25.57
2018-06-19T19:07:10.980Z,25.59
2018-06-19T19:09:44.601Z,25.56
2018-06-19T19:12:13.835Z,25.42
2018-06-19T19:14:48.205Z,25.16
2018-06-19T19:17:22.572Z,25.10
2018-06-19T19:19:51.777Z,25.17
2018-06-19T19:22:20.912Z,25.19
2018-06-19T19:24:50.044Z,25.11
2018-06-19T19:27:24.556Z,25.04
2018-06-19T19:29:53.730Z,25.02
2018-06-19T19:32:22.909Z,24.86
2018-06-19T19:34:52.204Z,24.63
2018-06-19T19:37:26.432Z,24.65
2018-06-19T19:39:55.695Z,24.64
2018-06-19T19:42:25.918Z,24.65
2018-06-19T19:44:55.033Z,24.66
2018-06-19T19:47:29.565Z,24.66
2018-06-19T19:49:59.051Z,24.52
2018-06-19T19:52:29.187Z,24.51
2018-06-19T19:54:58.335Z,24.44
2018-06-19T19:57:32.703Z,24.37
2018-06-19T20:00:01.879Z,24.28
2018-06-19T20:02:30.962Z,24.26
2018-06-19T20:05:00.097Z,24.24
2018-06-19T20:07:29.234Z,24.26
2018-06-19T20:09:58.426Z,24.22
2018-06-19T20:12:27.631Z,24.13
2018-06-19T20:14:56.783Z,24.07
2018-06-19T20:17:26.807Z,23.97
2018-06-19T20:19:55.971Z,23.85
2018-06-19T20:22:25.089Z,23.82
2018-06-19T20:24:54.397Z,23.75
2018-06-19T20:27:23.552Z,23.68
2018-06-19T20:29:52.831Z,23.60
2018-06-19T20:32:21.980Z,23.54
2018-06-19T20:34:51.939Z,23.52
2018-06-19T20:37:21.031Z,23.43
2018-06-19T20:39:50.110Z,23.36
2018-06-19T20:42:19.529Z,23.29
2018-06-19T20:44:48.921Z,23.17
2018-06-19T20:47:18.023Z,23.13
2018-06-19T20:49:47.158Z,23.11
2018-06-19T20:52:16.290Z,23.04
2018-06-19T20:54:45.458Z,22.98
2018-06-19T20:57:14.622Z,22.88
2018-06-19T20:59:43.769Z,22.86
2018-06-19T21:02:12.875Z,22.74
2018-06-19T21:04:42.206Z,22.67
2018-06-19T21:07:11.361Z,22.64
2018-06-19T21:09:40.567Z,22.53
2018-06-19T21:12:09.878Z,22.47
2018-06-19T21:14:39.057Z,22.43
2018-06-19T21:17:09.955Z,22.34
2018-06-19T21:19:39.109Z,22.33
2018-06-19T21:22:08.311Z,22.30
2018-06-19T21:24:37.530Z,22.29
2018-06-19T21:27:06.708Z,22.21
2018-06-19T21:29:36.006Z,22.22
2018-06-19T21:32:05.973Z,22.23
2018-06-19T21:34:35.542Z,22.26
2018-06-19T21:37:04.713Z,22.16
2018-06-19T21:39:33.818Z,22.09
2018-06-19T21:42:02.963Z,22.10
2018-06-19T21:44:32.081Z,22.09
2018-06-19T21:47:01.411Z,22.05
2018-06-19T21:49:32.856Z,21.92
2018-06-19T21:52:02.056Z,21.80
2018-06-19T21:54:31.610Z,21.76
2018-06-19T21:57:01.062Z,21.75
2018-06-19T21:59:30.259Z,21.61
2018-06-19T22:01:59.676Z,21.53
2018-06-19T22:04:29.587Z,21.44
2018-06-19T22:06:58.907Z,21.39
2018-06-19T22:09:30.631Z,21.38
2018-06-19T22:12:00.250Z,21.39
2018-06-19T22:14:29.398Z,21.33
2018-06-19T22:17:04.849Z,21.36
2018-06-19T22:19:36.902Z,21.33
2018-06-19T22:22:06.248Z,21.33
2018-06-19T22:24:35.325Z,21.26
2018-06-19T22:27:04.519Z,21.26
2018-06-19T22:29:33.839Z,21.36
2018-06-19T22:32:03.000Z,21.39
2018-06-19T22:34:32.121Z,21.31
2018-06-19T22:37:01.225Z,21.28
2018-06-19T22:39:30.458Z,21.25
2018-06-19T22:41:59.693Z,21.23
2018-06-19T22:44:28.850Z,21.22
2018-06-19T22:46:58.150Z,21.14
2018-06-19T22:49:27.397Z,21.04
2018-06-19T22:51:56.499Z,20.93
2018-06-19T22:54:25.896Z,20.83
2018-06-19T22:56:55.015Z,20.82
2018-06-19T22:59:24.190Z,20.81
2018-06-19T23:01:53.285Z,20.83
2018-06-19T23:04:22.673Z,20.77
2018-06-19T23:06:51.760Z,20.76
2018-06-19T23:09:20.841Z,20.64
2018-06-19T23:11:49.944Z,20.63
2018-06-19T23:14:19.061Z,20.59
2018-06-19T23:16:48.158Z,20.48
2018-06-19T23:19:17.269Z,20.57
2018-06-19T23:21:46.427Z,20.59
2018-06-19T23:24:15.641Z,20.58
2018-06-19T23:26:44.751Z,20.63
2018-06-19T23:29:14.286Z,20.53
2018-06-19T23:31:43.448Z,20.49
2018-06-19T23:34:12.547Z,20.50
2018-06-19T23:36:41.714Z,20.54
2018-06-19T23:39:10.882Z,20.41
2018-06-19T23:41:40.010Z,20.39
2018-06-19T23:44:09.205Z,20.34
2018-06-19T23:46:38.379Z,20.30
2018-06-19T23:49:07.447Z,20.29
2018-06-19T23:51:36.613Z,20.28
2018-06-19T23:54:06.508Z,20.27
2018-06-19T23:56:35.604Z,20.26
2018-06-19T23:59:05.843Z,20.22
